Time,TemperatureF,DewpointF,PressureIn,WindDirection,WindDirectionDegrees,WindSpeedMPH,WindSpeedGustMPH,Humidity,HourlyPrecipIn,Conditions,Clouds,dailyrainin,SolarRadiationWatts/m^2,SoftwareType,DateUTC
2013-02-22 00:13:00,24.5,20.0,30.11,WNW,287,10.0,-999.0,82,-99.99,,,0.00,0,weatherlink.com 1.10,2013-02-22 06:13:00,
2013-02-22 00:29:00,24.4,20.0,30.10,WNW,296,6.0,-999.0,82,-99.99,,,0.00,0,weatherlink.com 1.10,2013-02-22 06:29:00,
2013-02-22 00:46:00,24.1,20.0,30.08,West,272,7.0,-999.0,83,-99.99,,,0.00,0,weatherlink.com 1.10,2013-02-22 06:46:00,
2013-02-22 01:03:00,24.1,20.0,30.08,NW,319,7.0,-999.0,83,-99.99,,,0.00,0,weatherlink.com 1.10,2013-02-22 07:03:00,
2013-02-22 01:19:00,24.1,20.0,30.06,NW,309,11.0,-999.0,83,-99.99,,,0.00,0,weatherlink.com 1.10,2013-02-22 07:19:00,
2013-02-22 01:36:00,23.6,19.0,30.05,West,281,14.0,-999.0,83,-99.99,,,0.00,0,weatherlink.com 1.10,2013-02-22 07:36:00,
2013-02-22 01:53:00,23.5,21.0,30.03,West,281,9.0,-999.0,90,-99.99,,,0.00,0,weatherlink.com 1.10,2013-02-22 07:53:00,
2013-02-22 02:10:00,23.3,21.0,30.01,WNW,289,10.0,-999.0,92,-99.99,,,0.00,0,weatherlink.com 1.10,2013-02-22 08:10:00,
2013-02-22 02:27:00,23.2,21.0,30.00,West,277,7.0,-999.0,92,-99.99,,,0.00,0,weatherlink.com 1.10,2013-02-22 08:27:00,
2013-02-22 02:43:00,23.2,21.0,29.99,West,274,9.0,-999.0,93,-99.99,,,0.00,0,weatherlink.com 1.10,2013-02-22 08:43:00,
2013-02-22 03:00:00,23.2,21.0,29.97,WNW,294,10.0,-999.0,93,-99.99,,,0.00,0,weatherlink.com 1.10,2013-02-22 09:00:00,
2013-02-22 03:17:00,23.2,21.0,29.96,WNW,284,11.0,-999.0,93,-99.99,,,0.00,0,weatherlink.com 1.10,2013-02-22 09:17:00,
2013-02-22 03:33:00,23.2,22.0,29.96,West,261,11.0,-999.0,94,-99.99,,,0.00,0,weatherlink.com 1.10,2013-02-22 09:33:00,
2013-02-22 03:50:00,23.3,22.0,29.95,West,278,9.0,-999.0,94,-99.99,,,0.00,0,weatherlink.com 1.10,2013-02-22 09:50:00,
2013-02-22 04:07:00,23.5,22.0,29.94,West,277,7.0,-999.0,94,-99.99,,,0.00,0,weatherlink.com 1.10,2013-02-22 10:07:00,
2013-02-22 04:24:00,23.5,22.0,29.93,WNW,288,7.0,-999.0,94,-99.99,,,0.00,0,weatherlink.com 1.10,2013-02-22 10:24:00,
2013-02-22 04:40:00,23.6,22.0,29.93,WNW,296,15.0,-999.0,95,-99.99,,,0.00,0,weatherlink.com 1.10,2013-02-22 10:40:00,
2013-02-22 04:56:00,23.9,23.0,29.94,West,280,3.0,-999.0,95,-99.99,,,0.00,0,weatherlink.com 1.10,2013-02-22 10:56:00,
2013-02-22 05:14:00,24.2,23.0,29.93,WNW,296,9.0,-999.0,95,-99.99,,,0.00,0,weatherlink.com 1.10,2013-02-22 11:14:00,
2013-02-22 05:30:00,24.5,23.0,29.91,West,275,6.0,-999.0,95,-99.99,,,0.00,0,weatherlink.com 1.10,2013-02-22 11:30:00,
2013-02-22 05:47:00,25.0,24.0,29.90,West,281,10.0,-999.0,95,-99.99,,,0.00,0,weatherlink.com 1.10,2013-02-22 11:47:00,
2013-02-22 06:05:00,25.4,24.0,29.90,WNW,287,12.0,-999.0,96,-99.99,,,0.00,0,weatherlink.com 1.10,2013-02-22 12:05:00,
2013-02-22 06:22:00,25.6,25.0,29.89,WNW,287,10.0,-999.0,96,-99.99,,,0.00,0,weatherlink.com 1.10,2013-02-22 12:22:00,
2013-02-22 06:38:00,25.6,25.0,29.88,WNW,302,12.0,-999.0,96,-99.99,,,0.00,0,weatherlink.com 1.10,2013-02-22 12:38:00,
2013-02-22 06:54:00,25.8,25.0,29.88,West,274,11.0,-999.0,95,-99.99,,,0.00,0,weatherlink.com 1.10,2013-02-22 12:54:00,
2013-02-22 07:12:00,26.0,25.0,29.87,WNW,294,7.0,-999.0,95,-99.99,,,0.00,0,weatherlink.com 1.10,2013-02-22 13:12:00,
2013-02-22 07:29:00,26.3,25.0,29.87,NW,311,8.0,-999.0,95,-99.99,,,0.00,14,weatherlink.com 1.10,2013-02-22 13:29:00,
2013-02-22 07:45:00,26.6,25.0,29.86,WNW,284,10.0,-999.0,94,-99.99,,,0.00,25,weatherlink.com 1.10,2013-02-22 13:45:00,
2013-02-22 08:03:00,26.9,25.0,29.85,WNW,291,6.0,-999.0,94,-99.99,,,0.00,25,weatherlink.com 1.10,2013-02-22 14:03:00,
2013-02-22 08:20:00,27.0,25.0,29.85,WNW,295,7.0,-999.0,92,-99.99,,,0.00,49,weatherlink.com 1.10,2013-02-22 14:20:00,
2013-02-22 08:36:00,27.0,25.0,29.85,WNW,284,6.0,-999.0,92,-99.99,,,0.00,49,weatherlink.com 1.10,2013-02-22 14:36:00,
2013-02-22 08:52:00,27.2,25.0,29.84,West,277,7.0,-999.0,92,-99.99,,,0.00,51,weatherlink.com 1.10,2013-02-22 14:52:00,
2013-02-22 09:10:00,27.3,25.0,29.84,North,1,8.0,-999.0,92,-99.99,,,0.00,51,weatherlink.com 1.10,2013-02-22 15:10:00,
2013-02-22 09:27:00,27.6,26.0,29.83,NW,304,7.0,-999.0,93,-99.99,,,0.00,84,weatherlink.com 1.10,2013-02-22 15:27:00,
2013-02-22 09:43:00,27.8,26.0,29.83,WNW,289,6.0,-999.0,93,-99.99,,,0.00,107,weatherlink.com 1.10,2013-02-22 15:43:00,
2013-02-22 10:02:00,27.9,-99.9,29.83,WNW,288,6.0,-999.0,-999,-99.99,,,0.00,97,weatherlink.com 1.10,2013-02-22 16:02:00,
2013-02-22 10:18:00,28.2,-99.9,29.83,WNW,287,4.0,-999.0,-999,-99.99,,,0.00,97,weatherlink.com 1.10,2013-02-22 16:18:00,
2013-02-22 10:36:00,28.1,-99.9,29.83,WNW,291,8.0,-999.0,-999,-99.99,,,0.00,97,weatherlink.com 1.10,2013-02-22 16:36:00,
2013-02-22 10:53:00,28.2,-99.9,29.83,WNW,282,3.0,-999.0,-999,-99.99,,,0.00,151,weatherlink.com 1.10,2013-02-22 16:53:00,
2013-02-22 11:11:00,28.4,-99.9,29.83,WNW,295,5.0,-999.0,-999,-99.99,,,0.00,128,weatherlink.com 1.10,2013-02-22 17:11:00,
2013-02-22 11:28:00,28.4,-99.9,29.83,WNW,294,3.0,-999.0,-999,-99.99,,,0.00,164,weatherlink.com 1.10,2013-02-22 17:28:00,
2013-02-22 11:45:00,28.5,27.0,29.83,NW,319,4.0,-999.0,95,-99.99,,,0.00,132,weatherlink.com 1.10,2013-02-22 17:45:00,
2013-02-22 12:03:00,28.7,27.0,29.83,WNW,291,3.0,-999.0,94,-99.99,,,0.00,132,weatherlink.com 1.10,2013-02-22 18:03:00,
2013-02-22 12:19:00,28.7,27.0,29.82,NW,309,3.0,-999.0,94,-99.99,,,0.00,132,weatherlink.com 1.10,2013-02-22 18:19:00,
2013-02-22 12:36:00,29.1,27.0,29.81,WNW,298,1.0,-999.0,93,-99.99,,,0.00,132,weatherlink.com 1.10,2013-02-22 18:36:00,
2013-02-22 12:53:00,29.4,28.0,29.80,NW,305,5.0,-999.0,93,-99.99,,,0.00,355,weatherlink.com 1.10,2013-02-22 18:53:00,
2013-02-22 13:10:00,29.7,28.0,29.80,NW,318,3.0,-999.0,92,-99.99,,,0.00,289,weatherlink.com 1.10,2013-02-22 19:10:00,
2013-02-22 13:26:00,29.7,28.0,29.79,NW,306,0.0,-999.0,92,-99.99,,,0.00,248,weatherlink.com 1.10,2013-02-22 19:26:00,
2013-02-22 13:43:00,30.1,28.0,29.78,NW,313,2.0,-999.0,90,-99.99,,,0.00,248,weatherlink.com 1.10,2013-02-22 19:43:00,
2013-02-22 14:00:00,29.8,27.0,29.79,NW,315,5.0,-999.0,89,-99.99,,,0.00,248,weatherlink.com 1.10,2013-02-22 20:00:00,
2013-02-22 14:17:00,30.0,27.0,29.78,WNW,302,1.0,-999.0,89,-99.99,,,0.00,248,weatherlink.com 1.10,2013-02-22 20:17:00,
2013-02-22 14:33:00,30.6,28.0,29.77,NW,315,1.0,-999.0,89,-99.99,,,0.01,197,weatherlink.com 1.10,2013-02-22 20:33:00,
2013-02-22 14:49:00,30.3,27.0,29.77,NW,306,0.0,-999.0,89,-99.99,,,0.01,202,weatherlink.com 1.10,2013-02-22 20:49:00,
2013-02-22 15:07:00,30.4,27.0,29.79,NNW,329,2.0,-999.0,88,-99.99,,,0.02,202,weatherlink.com 1.10,2013-02-22 21:07:00,
2013-02-22 15:23:00,30.4,27.0,29.80,NW,325,4.0,-999.0,88,-99.99,,,0.02,49,weatherlink.com 1.10,2013-02-22 21:23:00,
2013-02-22 15:39:00,30.3,27.0,29.80,NNW,330,6.0,-999.0,87,-99.99,,,0.02,32,weatherlink.com 1.10,2013-02-22 21:39:00,
2013-02-22 15:55:00,30.1,27.0,29.80,NNW,328,5.0,-999.0,87,-99.99,,,0.02,25,weatherlink.com 1.10,2013-02-22 21:55:00,
2013-02-22 16:12:00,30.0,27.0,29.80,NNW,339,3.0,-999.0,87,-99.99,,,0.02,53,weatherlink.com 1.10,2013-02-22 22:12:00,
2013-02-22 16:29:00,29.8,26.0,29.79,NNW,342,3.0,-999.0,87,-99.99,,,0.02,53,weatherlink.com 1.10,2013-02-22 22:29:00,
2013-02-22 16:46:00,29.7,-99.9,29.79,NNW,337,6.0,-999.0,-999,-99.99,,,0.02,42,weatherlink.com 1.10,2013-02-22 22:46:00,
2013-02-22 17:05:00,29.4,26.0,29.80,NNW,343,6.0,-999.0,88,-99.99,,,0.02,42,weatherlink.com 1.10,2013-02-22 23:05:00,
2013-02-22 17:22:00,29.3,26.0,29.80,NNW,342,1.0,-999.0,88,-99.99,,,0.02,42,weatherlink.com 1.10,2013-02-22 23:22:00,
2013-02-22 17:38:00,29.1,26.0,29.80,NNW,335,5.0,-999.0,88,-99.99,,,0.02,0,weatherlink.com 1.10,2013-02-22 23:38:00,
2013-02-22 17:54:00,29.0,26.0,29.80,NNW,337,7.0,-999.0,88,-99.99,,,0.02,0,weatherlink.com 1.10,2013-02-22 23:54:00,
2013-02-22 18:12:00,28.8,26.0,29.81,NNW,335,5.0,-999.0,88,-99.99,,,0.02,0,weatherlink.com 1.10,2013-02-23 00:12:00,
2013-02-22 18:29:00,28.8,26.0,29.81,NNW,344,2.0,-999.0,89,-99.99,,,0.02,0,weatherlink.com 1.10,2013-02-23 00:29:00,
2013-02-22 18:47:00,28.7,26.0,29.81,North,0,2.0,-999.0,89,-99.99,,,0.02,0,weatherlink.com 1.10,2013-02-23 00:47:00,
2013-02-22 19:05:00,28.4,26.0,29.82,NNW,339,5.0,-999.0,89,-99.99,,,0.02,0,weatherlink.com 1.10,2013-02-23 01:05:00,
2013-02-22 19:21:00,28.2,-99.9,29.81,NNW,337,4.0,-999.0,-999,-99.99,,,0.02,0,weatherlink.com 1.10,2013-02-23 01:21:00,
2013-02-22 19:38:00,28.1,-99.9,29.82,NW,319,2.0,-999.0,-999,-99.99,,,0.02,0,weatherlink.com 1.10,2013-02-23 01:38:00,
2013-02-22 19:55:00,28.1,-99.9,29.82,NNW,339,7.0,-999.0,-999,-99.99,,,0.02,0,weatherlink.com 1.10,2013-02-23 01:55:00,
2013-02-22 20:12:00,28.1,-99.9,29.82,NNW,329,5.0,-999.0,-999,-99.99,,,0.02,0,weatherlink.com 1.10,2013-02-23 02:12:00,
2013-02-22 20:29:00,27.9,25.0,29.82,NNW,344,5.0,-999.0,89,-99.99,,,0.02,0,weatherlink.com 1.10,2013-02-23 02:29:00,
2013-02-22 20:46:00,27.8,25.0,29.83,NNW,344,10.0,-999.0,89,-99.99,,,0.02,0,weatherlink.com 1.10,2013-02-23 02:46:00,
2013-02-22 21:03:00,27.6,25.0,29.83,NNW,328,4.0,-999.0,89,-99.99,,,0.02,0,weatherlink.com 1.10,2013-02-23 03:03:00,
2013-02-22 21:20:00,27.5,25.0,29.83,NW,326,5.0,-999.0,89,-99.99,,,0.02,0,weatherlink.com 1.10,2013-02-23 03:20:00,
2013-02-22 21:37:00,27.5,25.0,29.83,NNW,328,7.0,-999.0,89,-99.99,,,0.02,0,weatherlink.com 1.10,2013-02-23 03:37:00,
2013-02-22 21:54:00,27.5,25.0,29.83,NNW,343,5.0,-999.0,89,-99.99,,,0.02,0,weatherlink.com 1.10,2013-02-23 03:54:00,
2013-02-22 22:12:00,27.5,25.0,29.82,NNW,340,5.0,-999.0,89,-99.99,,,0.02,0,weatherlink.com 1.10,2013-02-23 04:12:00,
2013-02-22 22:28:00,27.3,24.0,29.82,NNW,344,8.0,-999.0,89,-99.99,,,0.02,0,weatherlink.com 1.10,2013-02-23 04:28:00,
2013-02-22 22:45:00,27.3,25.0,29.83,NNW,346,7.0,-999.0,90,-99.99,,,0.02,0,weatherlink.com 1.10,2013-02-23 04:45:00,
2013-02-22 23:02:00,27.2,25.0,29.82,NNW,340,5.0,-999.0,90,-99.99,,,0.02,0,weatherlink.com 1.10,2013-02-23 05:02:00,
2013-02-22 23:19:00,27.2,24.0,29.82,NNW,347,5.0,-999.0,89,-99.99,,,0.02,0,weatherlink.com 1.10,2013-02-23 05:19:00,
2013-02-22 23:36:00,27.2,24.0,29.82,NNW,340,6.0,-999.0,89,-99.99,,,0.02,0,weatherlink.com 1.10,2013-02-23 05:36:00,
2013-02-22 23:52:00,27.0,24.0,29.82,NNW,340,6.0,-999.0,89,-99.99,,,0.02,0,weatherlink.com 1.10,2013-02-23 05:52:00,